Time;durP1;ratioP1;P1;durP2;ratioP2;P2;SDS_P1;SDS_P2;PMS_P1;PMS_P2;Temp;Humidity;BMP_temperature;BMP_pressure;BME280_temperature;BME280_humidity;BME280_pressure;Samples;Min_cycle;Max_cycle;Signal;HPM_P1;HPM_P2
2021/10/30 00:00:09;;;;;;;6.65;4.10;;;;;;;18.59;41.84;100322.59;4957542;28;20042;-69
2021/10/30 00:02:36;;;;;;;6.75;4.25;;;;;;;18.57;42.19;100330.16;4958714;28;20541;-69
2021/10/30 00:05:05;;;;;;;6.57;4.07;;;;;;;18.57;41.99;100331.00;4953255;28;20725;-69
2021/10/30 00:07:32;;;;;;;7.30;4.50;;;;;;;18.55;41.74;100329.41;4950505;29;20082;-69
2021/10/30 00:09:59;;;;;;;6.40;4.28;;;;;;;18.52;42.22;100327.00;4950853;28;20427;-69
2021/10/30 00:12:25;;;;;;;5.47;3.97;;;;;;;18.51;41.88;100325.28;4949715;28;20054;-69
2021/10/30 00:14:52;;;;;;;5.82;3.90;;;;;;;18.50;41.86;100329.06;4950911;28;20479;-69
2021/10/30 00:17:19;;;;;;;6.97;4.20;;;;;;;18.48;42.31;100322.84;4958829;28;20059;-69
2021/10/30 00:19:45;;;;;;;8.25;4.32;;;;;;;18.46;42.22;100312.03;4955443;28;20058;-69
2021/10/30 00:22:13;;;;;;;6.53;4.28;;;;;;;18.45;41.78;100303.94;4955316;28;20043;-68
2021/10/30 00:24:39;;;;;;;6.90;4.00;;;;;;;18.45;42.05;100306.69;4954572;28;20526;-69
2021/10/30 00:27:08;;;;;;;6.10;4.18;;;;;;;18.44;41.80;100310.50;4954534;28;20113;-69
2021/10/30 00:29:34;;;;;;;6.80;3.88;;;;;;;18.41;41.91;100303.44;4964892;28;20455;-69
2021/10/30 00:32:01;;;;;;;5.75;3.80;;;;;;;18.41;41.80;100302.56;4960467;28;20084;-68
2021/10/30 00:34:28;;;;;;;5.72;3.88;;;;;;;18.41;42.14;100299.81;4960355;28;20055;-68
2021/10/30 00:36:55;;;;;;;6.45;4.20;;;;;;;18.40;41.89;100304.44;4954766;28;20062;-69
2021/10/30 00:39:22;;;;;;;6.25;3.58;;;;;;;18.40;42.04;100306.34;4954496;28;20486;-69
2021/10/30 00:41:50;;;;;;;5.75;3.78;;;;;;;18.40;42.06;100301.69;4955079;28;20066;-66
2021/10/30 00:44:18;;;;;;;6.18;3.67;;;;;;;18.38;41.74;100298.25;4955208;28;20585;-66
2021/10/30 00:46:49;;;;;;;5.45;3.55;;;;;;;18.39;41.74;100291.72;4954027;28;20047;-66
2021/10/30 00:49:17;;;;;;;6.90;4.28;;;;;;;18.39;41.62;100274.38;4959670;28;20565;-66
2021/10/30 00:51:47;;;;;;;6.05;3.88;;;;;;;18.40;42.01;100285.22;4954914;28;20047;-66
2021/10/30 00:54:14;;;;;;;5.93;3.58;;;;;;;18.39;42.28;100291.72;4953928;28;20097;-66
2021/10/30 00:56:42;;;;;;;5.03;3.72;;;;;;;18.38;42.04;100280.91;4956647;28;20486;-66
2021/10/30 00:59:14;;;;;;;5.55;3.55;;;;;;;18.39;41.95;100278.00;4954697;28;20886;-66
2021/10/30 01:01:42;;;;;;;5.20;3.53;;;;;;;18.36;42.33;100274.72;4964029;28;20098;-69
2021/10/30 01:04:09;;;;;;;5.70;3.45;;;;;;;18.36;42.07;100277.47;4952979;28;20154;-69
2021/10/30 01:06:38;;;;;;;5.47;3.50;;;;;;;18.39;41.74;100274.38;4959715;28;20073;-69
2021/10/30 01:09:05;;;;;;;5.22;3.50;;;;;;;18.37;42.04;100280.03;4959669;28;20050;-69
2021/10/30 01:11:32;;;;;;;8.32;3.58;;;;;;;18.36;41.90;100286.59;4962588;28;20098;-68
2021/10/30 01:14:00;;;;;;;5.20;3.53;;;;;;;18.38;41.65;100280.91;4961193;28;20051;-69
2021/10/30 01:16:27;;;;;;;5.85;3.70;;;;;;;18.37;41.96;100284.66;4960210;28;20078;-69
2021/10/30 01:18:53;;;;;;;5.88;3.80;;;;;;;18.37;41.82;100281.91;4960649;28;20054;-69
2021/10/30 01:21:28;;;;;;;5.80;3.40;;;;;;;18.40;41.59;100273.34;4957046;28;20055;-69
2021/10/30 01:23:55;;;;;;;6.25;3.42;;;;;;;18.36;42.00;100271.97;4957548;28;20074;-69
2021/10/30 01:26:23;;;;;;;5.88;4.00;;;;;;;18.35;41.44;100273.88;4961940;28;20122;-68
2021/10/30 01:28:50;;;;;;;6.78;3.70;;;;;;;18.34;41.85;100265.78;4956775;28;20047;-69
2021/10/30 01:31:20;;;;;;;5.45;3.17;;;;;;;18.34;41.56;100263.03;4957426;28;20078;-68
2021/10/30 01:33:49;;;;;;;4.85;3.30;;;;;;;18.32;41.51;100251.34;4964728;28;20495;-68
2021/10/30 01:36:18;;;;;;;5.65;3.45;;;;;;;18.31;41.81;100253.22;4966223;28;20487;-69
2021/10/30 01:38:45;;;;;;;5.22;3.28;;;;;;;18.28;41.74;100247.22;4956636;28;20130;-69
2021/10/30 01:41:12;;;;;;;6.65;3.83;;;;;;;18.29;41.99;100246.16;4957059;28;20057;-69
2021/10/30 01:43:39;;;;;;;5.20;3.38;;;;;;;18.27;41.86;100246.34;4955579;28;20731;-66
2021/10/30 01:46:06;;;;;;;5.55;3.65;;;;;;;18.26;41.55;100244.63;4953572;28;20071;-66
2021/10/30 01:48:36;;;;;;;5.80;3.75;;;;;;;18.28;41.78;100241.72;4945943;28;20054;-66
2021/10/30 01:51:05;;;;;;;6.32;3.50;;;;;;;18.27;41.53;100234.50;4950566;28;20127;-66
2021/10/30 01:53:33;;;;;;;5.55;3.40;;;;;;;18.25;41.64;100230.03;4951236;28;20083;-66
2021/10/30 01:56:00;;;;;;;5.65;3.50;;;;;;;18.23;41.85;100231.22;4952857;28;20513;-66
2021/10/30 01:58:27;;;;;;;4.55;3.15;;;;;;;18.23;41.51;100217.47;4955241;28;20098;-66
2021/10/30 02:00:56;;;;;;;6.50;3.97;;;;;;;18.24;41.95;100214.56;4953537;28;20047;-66
2021/10/30 02:03:24;;;;;;;4.97;3.30;;;;;;;18.21;41.63;100195.66;4954189;28;20478;-66
2021/10/30 02:05:52;;;;;;;5.38;3.70;;;;;;;18.21;41.82;100190.16;4952410;28;20629;-66
2021/10/30 02:08:21;;;;;;;6.15;3.17;;;;;;;18.23;41.75;100179.88;4958030;28;20645;-67
2021/10/30 02:10:48;;;;;;;4.60;2.90;;;;;;;18.21;41.70;100181.06;4953566;28;20055;-67
2021/10/30 02:13:15;;;;;;;4.95;3.42;;;;;;;18.20;41.54;100199.44;4955678;28;20105;-67
2021/10/30 02:15:42;;;;;;;5.70;3.60;;;;;;;18.19;42.10;100191.38;4955295;28;20493;-67
2021/10/30 02:18:09;;;;;;;5.03;3.28;;;;;;;18.19;41.63;100191.38;4951586;28;20142;-67
2021/10/30 02:20:36;;;;;;;5.10;3.30;;;;;;;18.18;41.59;100185.03;4954086;28;20051;-67
2021/10/30 02:23:03;;;;;;;4.50;3.20;;;;;;;18.18;41.67;100185.03;4955055;28;20495;-67
2021/10/30 02:25:30;;;;;;;5.28;3.33;;;;;;;18.17;42.05;100186.03;4956265;28;20145;-66
2021/10/30 02:27:56;;;;;;;5.82;3.35;;;;;;;18.15;41.94;100181.72;4955633;28;20059;-67
2021/10/30 02:30:24;;;;;;;5.32;3.40;;;;;;;18.13;41.86;100170.91;4952017;28;20051;-68
2021/10/30 02:32:51;;;;;;;4.07;2.90;;;;;;;18.13;41.95;100162.66;4951123;28;20098;-68
2021/10/30 02:35:19;;;;;;;5.25;3.33;;;;;;;18.13;41.99;100159.91;4951434;28;20082;-68
2021/10/30 02:37:45;;;;;;;6.43;3.67;;;;;;;18.11;41.98;100155.63;4952302;28;20047;-68
2021/10/30 02:40:12;;;;;;;5.00;3.20;;;;;;;18.11;41.85;100152.88;4949771;28;20096;-68
2021/10/30 02:42:39;;;;;;;5.78;3.50;;;;;;;18.10;41.58;100146.53;4956885;28;20170;-68
2021/10/30 02:45:08;;;;;;;5.20;3.28;;;;;;;18.11;41.94;100139.16;4950868;28;20055;-68
2021/10/30 02:47:34;;;;;;;6.22;3.25;;;;;;;18.09;41.90;100128.31;4955978;28;20054;-68
2021/10/30 02:50:01;;;;;;;4.32;2.83;;;;;;;18.09;41.88;100125.59;4951507;28;20066;-68
2021/10/30 02:52:29;;;;;;;5.78;3.05;;;;;;;18.09;41.98;100124.72;4955584;28;20046;-68
2021/10/30 02:54:56;;;;;;;6.13;3.28;;;;;;;18.08;41.51;100131.25;4964623;28;20070;-67
2021/10/30 02:57:23;;;;;;;4.38;2.88;;;;;;;18.09;42.09;100124.72;4967134;28;20387;-68
2021/10/30 02:59:50;;;;;;;4.70;2.95;;;;;;;18.08;41.95;100125.75;4951450;28;20142;-68
2021/10/30 03:02:17;;;;;;;5.60;3.47;;;;;;;18.09;41.88;100127.47;4953434;28;20055;-68
2021/10/30 03:04:44;;;;;;;5.18;2.80;;;;;;;18.08;41.63;100118.38;4954896;28;20055;-68
2021/10/30 03:07:10;;;;;;;5.13;3.10;;;;;;;18.07;41.68;100124.88;4952742;28;20102;-67
2021/10/30 03:09:37;;;;;;;4.40;3.05;;;;;;;18.08;41.74;100114.75;4950594;28;20562;-69
2021/10/30 03:12:04;;;;;;;4.88;3.25;;;;;;;18.06;41.66;100114.91;4953422;28;20123;-68
2021/10/30 03:14:30;;;;;;;4.72;3.33;;;;;;;18.07;41.80;100118.53;4954676;28;20476;-67
2021/10/30 03:16:57;;;;;;;5.90;3.67;;;;;;;18.06;42.03;100094.81;4952984;28;20146;-67
2021/10/30 03:19:23;;;;;;;4.63;2.97;;;;;;;18.06;41.75;100111.31;4947139;28;20130;-67
2021/10/30 03:21:50;;;;;;;4.63;3.00;;;;;;;18.04;41.59;100103.22;4939663;29;20426;-68
2021/10/30 03:24:17;;;;;;;5.40;3.15;;;;;;;18.05;41.67;100107.69;4941054;28;20074;-67
2021/10/30 03:26:43;;;;;;;5.15;3.38;;;;;;;18.04;41.60;100114.22;4951443;28;20467;-67
2021/10/30 03:29:10;;;;;;;6.55;3.35;;;;;;;18.06;41.70;100119.56;4951636;28;20309;-67
2021/10/30 03:31:37;;;;;;;4.47;3.17;;;;;;;18.05;42.03;100118.69;4948144;28;20414;-67
2021/10/30 03:34:04;;;;;;;4.13;2.92;;;;;;;18.05;41.90;100109.59;4957501;28;20055;-67
2021/10/30 03:36:32;;;;;;;5.20;3.22;;;;;;;18.04;41.81;100111.47;4951989;28;20196;-67
2021/10/30 03:39:02;;;;;;;4.72;2.97;;;;;;;18.05;41.56;100107.69;4963206;28;20070;-67
2021/10/30 03:41:29;;;;;;;6.82;3.50;;;;;;;18.03;41.87;100106.16;4956089;28;20117;-67
2021/10/30 03:43:56;;;;;;;5.90;3.13;;;;;;;18.04;42.02;100110.59;4960761;28;20059;-67
2021/10/30 03:46:22;;;;;;;4.95;3.03;;;;;;;18.02;42.12;100112.69;4956086;28;20435;-67
2021/10/30 03:48:49;;;;;;;4.85;2.90;;;;;;;18.01;41.90;100117.31;4954864;28;20047;-67
2021/10/30 03:51:15;;;;;;;5.45;3.10;;;;;;;18.02;42.07;100121.78;4949449;28;20082;-67
2021/10/30 03:53:42;;;;;;;4.47;3.13;;;;;;;18.02;42.12;100119.03;4951631;28;20562;-67
2021/10/30 03:56:08;;;;;;;5.15;3.25;;;;;;;18.01;42.83;100125.56;4951429;28;20699;-67
2021/10/30 03:58:35;;;;;;;4.85;3.20;;;;;;;18.01;42.97;100116.47;4950647;28;20074;-67
2021/10/30 04:01:02;;;;;;;4.88;3.00;;;;;;;18.00;42.69;100121.09;4948768;28;20541;-67
2021/10/30 04:03:30;;;;;;;4.25;3.13;;;;;;;17.99;43.02;100116.63;4950247;28;20051;-67
2021/10/30 04:06:01;;;;;;;5.00;3.10;;;;;;;17.98;42.75;100114.91;4954536;28;20505;-67
2021/10/30 04:08:28;;;;;;;5.40;3.17;;;;;;;17.99;42.92;100124.00;4950832;28;20491;-67
2021/10/30 04:10:55;;;;;;;4.22;2.80;;;;;;;17.98;43.49;100119.53;4950935;28;20122;-67
2021/10/30 04:13:22;;;;;;;4.93;2.95;;;;;;;17.98;43.42;100130.50;4954000;28;20109;-67
2021/10/30 04:15:49;;;;;;;5.10;3.30;;;;;;;17.96;43.93;100118.84;4953008;28;20078;-67
2021/10/30 04:18:15;;;;;;;5.47;3.17;;;;;;;17.98;43.72;100125.03;4953208;28;20047;-67
2021/10/30 04:20:42;;;;;;;5.60;2.95;;;;;;;17.96;43.94;100127.06;4950288;28;20474;-67
2021/10/30 04:23:09;;;;;;;4.68;3.08;;;;;;;17.96;43.79;100118.84;4951000;28;20051;-67
2021/10/30 04:25:36;;;;;;;5.88;3.42;;;;;;;17.95;44.26;100112.50;4949549;28;20099;-67
2021/10/30 04:28:03;;;;;;;5.97;3.47;;;;;;;17.94;44.39;100110.78;4950861;28;20570;-67
2021/10/30 04:30:30;;;;;;;4.50;3.20;;;;;;;17.93;43.75;100102.72;4940277;28;20517;-67
2021/10/30 04:32:57;;;;;;;6.57;3.78;;;;;;;17.91;44.04;100110.25;4950040;28;20537;-67
2021/10/30 04:35:24;;;;;;;4.85;3.17;;;;;;;17.88;44.14;100105.94;4951016;28;20043;-67
2021/10/30 04:37:51;;;;;;;5.78;3.38;;;;;;;17.86;44.34;100103.38;4954964;28;20121;-67
2021/10/30 04:40:18;;;;;;;6.28;3.80;;;;;;;17.82;44.69;100098.38;4950388;28;20110;-67
2021/10/30 04:42:44;;;;;;;5.63;3.47;;;;;;;17.79;44.27;100088.59;4954012;28;20530;-67
2021/10/30 04:45:11;;;;;;;5.28;3.53;;;;;;;17.75;44.42;100078.97;4955259;28;20121;-68
2021/10/30 04:47:38;;;;;;;5.85;3.35;;;;;;;17.73;45.04;100074.66;4959181;28;20078;-67
2021/10/30 04:50:05;;;;;;;5.00;3.20;;;;;;;17.69;44.90;100073.31;4950920;28;20067;-67
2021/10/30 04:52:32;;;;;;;6.13;3.60;;;;;;;17.66;44.97;100070.88;4954818;28;20051;-67
2021/10/30 04:54:59;;;;;;;6.35;3.83;;;;;;;17.62;45.07;100064.03;4950316;28;20060;-67
2021/10/30 04:57:25;;;;;;;6.03;4.07;;;;;;;17.59;45.02;100053.31;4949958;28;20040;-68
2021/10/30 04:59:52;;;;;;;5.05;3.88;;;;;;;17.55;45.36;100051.94;4949596;28;20106;-68
2021/10/30 05:02:18;;;;;;;5.55;3.80;;;;;;;17.51;45.31;100051.41;4950299;28;20102;-67
2021/10/30 05:04:45;;;;;;;5.07;3.78;;;;;;;17.48;45.43;100044.38;4954142;28;20126;-68
2021/10/30 05:07:12;;;;;;;7.40;3.95;;;;;;;17.45;45.62;100039.22;4954191;28;20392;-68
2021/10/30 05:09:39;;;;;;;6.18;3.70;;;;;;;17.43;45.57;100037.66;4954780;28;20075;-67
2021/10/30 05:12:06;;;;;;;6.95;3.63;;;;;;;17.41;45.79;100036.97;4954827;28;20047;-67
2021/10/30 05:14:32;;;;;;;5.70;4.05;;;;;;;17.39;45.95;100030.78;4961142;28;20337;-68
2021/10/30 05:16:59;;;;;;;5.55;3.78;;;;;;;17.36;46.19;100032.00;4953047;28;20102;-68
2021/10/30 05:19:26;;;;;;;5.72;3.67;;;;;;;17.34;46.25;100027.69;4952948;28;20107;-68
2021/10/30 05:21:52;;;;;;;5.43;3.55;;;;;;;17.34;45.88;100024.94;4956412;28;20565;-68
2021/10/30 05:24:19;;;;;;;6.22;4.18;;;;;;;17.31;46.14;100022.53;4953442;28;20055;-68
2021/10/30 05:26:46;;;;;;;6.03;3.40;;;;;;;17.30;46.05;100021.66;4938953;28;20059;-68
2021/10/30 05:29:13;;;;;;;5.75;3.63;;;;;;;17.29;46.25;100016.38;4953311;28;20051;-68
2021/10/30 05:31:39;;;;;;;5.30;3.70;;;;;;;17.26;46.38;100002.97;4955791;28;20055;-68
2021/10/30 05:34:06;;;;;;;5.40;3.65;;;;;;;17.27;46.39;99999.19;4957132;28;20057;-68
2021/10/30 05:36:36;;;;;;;6.38;3.90;;;;;;;17.25;46.48;99990.28;4955172;28;20054;-68
2021/10/30 05:39:10;;;;;;;5.65;3.50;;;;;;;17.26;47.05;99994.75;4958037;28;20054;-68
2021/10/30 05:41:37;;;;;;;5.35;3.50;;;;;;;17.22;46.71;99985.09;4955489;28;20553;-68
2021/10/30 05:44:04;;;;;;;5.35;3.90;;;;;;;17.22;46.95;99985.09;4970721;28;20055;-68
2021/10/30 05:46:31;;;;;;;4.97;3.45;;;;;;;17.21;46.81;99987.03;4973326;28;20075;-68
2021/10/30 05:48:59;;;;;;;5.28;3.63;;;;;;;17.22;47.04;99985.97;4958516;28;20664;-68
2021/10/30 05:51:26;;;;;;;4.95;3.50;;;;;;;17.21;47.14;99980.66;4968731;28;20050;-68
2021/10/30 05:53:52;;;;;;;5.55;3.50;;;;;;;17.20;47.03;99977.06;4956383;28;20102;-68
2021/10/30 05:56:19;;;;;;;3.90;2.90;;;;;;;17.20;46.81;99971.59;4967556;28;20086;-68
2021/10/30 05:58:45;;;;;;;6.63;3.70;;;;;;;17.22;47.34;99976.88;4961301;28;20066;-68
2021/10/30 06:01:12;;;;;;;5.22;3.40;;;;;;;17.21;47.07;99973.31;4970117;28;20113;-68
2021/10/30 06:03:39;;;;;;;6.63;3.63;;;;;;;17.23;47.79;99976.72;4962393;28;20086;-68
2021/10/30 06:06:06;;;;;;;4.93;3.40;;;;;;;17.24;47.12;99972.94;4954955;28;20126;-68
2021/10/30 06:08:32;;;;;;;4.80;3.05;;;;;;;17.25;47.24;99966.44;4953071;28;20055;-68
2021/10/30 06:10:59;;;;;;;5.30;3.08;;;;;;;17.26;47.45;99972.78;4954436;28;20070;-68
2021/10/30 06:13:27;;;;;;;4.80;3.20;;;;;;;17.26;47.64;99976.41;4952254;28;20396;-68
2021/10/30 06:15:53;;;;;;;5.28;3.70;;;;;;;17.27;47.68;99971.75;4953952;28;20062;-68
2021/10/30 06:18:20;;;;;;;5.88;3.60;;;;;;;17.27;47.53;99971.75;4952490;28;20442;-68
2021/10/30 06:20:47;;;;;;;4.43;2.78;;;;;;;17.28;47.21;99978.97;4960555;28;20042;-68
2021/10/30 06:23:15;;;;;;;4.95;3.28;;;;;;;17.27;47.33;99972.63;4968358;28;20483;-67
2021/10/30 06:25:43;;;;;;;5.70;3.22;;;;;;;17.29;47.29;99978.81;4953100;28;20109;-67
2021/10/30 06:28:11;;;;;;;5.43;3.45;;;;;;;17.30;47.67;99982.38;4955573;28;20047;-68
2021/10/30 06:30:37;;;;;;;5.72;3.70;;;;;;;17.27;47.53;99969.03;4961320;28;20102;-67
2021/10/30 06:33:07;;;;;;;5.03;3.45;;;;;;;17.28;47.38;99985.31;4955835;28;20051;-68
2021/10/30 06:35:34;;;;;;;4.70;3.10;;;;;;;17.27;47.39;99972.63;4960687;28;20047;-68
2021/10/30 06:38:01;;;;;;;4.22;2.80;;;;;;;17.27;47.71;99978.13;4953793;28;20074;-68
2021/10/30 06:40:28;;;;;;;4.53;3.13;;;;;;;17.28;47.54;99990.81;4954760;28;20106;-68
2021/10/30 06:42:55;;;;;;;5.97;3.55;;;;;;;17.28;47.11;99979.84;4964218;28;20499;-68
2021/10/30 06:45:21;;;;;;;5.38;3.08;;;;;;;17.28;47.37;99978.97;4951893;28;20083;-67
2021/10/30 06:47:48;;;;;;;4.88;3.20;;;;;;;17.28;47.51;99985.31;4950002;28;20439;-68
2021/10/30 06:50:21;;;;;;;5.35;3.42;;;;;;;17.29;47.31;99981.56;4951418;28;20086;-68
2021/10/30 06:52:49;;;;;;;5.07;3.38;;;;;;;17.28;47.52;99990.81;4949864;28;20495;-68
2021/10/30 06:55:17;;;;;;;5.60;3.60;;;;;;;17.30;47.46;99986.00;4950178;28;20102;-68
2021/10/30 06:57:46;;;;;;;5.50;3.30;;;;;;;17.31;47.36;99978.63;4952692;28;20147;-68
2021/10/30 07:00:13;;;;;;;5.97;3.72;;;;;;;17.30;47.06;99980.50;4950826;28;20550;-67
2021/10/30 07:02:40;;;;;;;5.53;3.40;;;;;;;17.30;47.01;99969.53;4952063;28;20047;-67
2021/10/30 07:05:08;;;;;;;5.07;3.10;;;;;;;17.30;47.01;99976.91;4950417;28;20106;-68
2021/10/30 07:07:35;;;;;;;4.88;3.13;;;;;;;17.28;46.88;99979.84;4952011;28;20475;-68
2021/10/30 07:10:02;;;;;;;5.40;3.70;;;;;;;17.28;47.00;99977.09;4950844;28;20055;-68
2021/10/30 07:12:31;;;;;;;4.55;3.13;;;;;;;17.29;47.23;99981.56;4951355;28;20590;-68
2021/10/30 07:15:04;;;;;;;5.20;3.17;;;;;;;17.28;46.96;99981.72;4951313;28;20085;-68
2021/10/30 07:17:31;;;;;;;5.97;3.25;;;;;;;17.29;47.25;99978.81;4952276;28;20047;-68
2021/10/30 07:19:57;;;;;;;6.03;3.28;;;;;;;17.29;47.20;99977.94;4950850;28;20047;-67
2021/10/30 07:22:24;;;;;;;5.95;3.53;;;;;;;17.28;47.12;99977.09;4962934;28;20099;-67
2021/10/30 07:24:51;;;;;;;5.03;3.42;;;;;;;17.29;46.97;99977.94;4950398;28;20110;-67
2021/10/30 07:27:18;;;;;;;6.15;3.60;;;;;;;17.28;47.22;99962.50;4956136;28;20047;-68
2021/10/30 07:29:47;;;;;;;6.35;3.47;;;;;;;17.29;46.98;99967.84;4950100;28;20088;-68
2021/10/30 07:32:17;;;;;;;4.40;3.10;;;;;;;17.27;47.29;99969.88;4951415;28;20051;-67
2021/10/30 07:34:43;;;;;;;6.72;4.13;;;;;;;17.28;47.05;99970.75;4950509;28;20047;-67
2021/10/30 07:37:10;;;;;;;5.40;3.63;;;;;;;17.28;47.02;99976.22;4951463;28;20486;-68
2021/10/30 07:39:37;;;;;;;5.80;3.60;;;;;;;17.28;46.91;99970.75;4950720;28;20059;-68
2021/10/30 07:42:05;;;;;;;5.78;3.58;;;;;;;17.29;46.82;99972.47;4946415;28;20111;-67
2021/10/30 07:44:34;;;;;;;6.60;4.03;;;;;;;17.28;46.99;99973.50;4943803;28;20055;-67
2021/10/30 07:47:02;;;;;;;6.00;3.58;;;;;;;17.27;46.88;99972.63;4943868;28;20089;-68
2021/10/30 07:49:28;;;;;;;5.55;3.38;;;;;;;17.27;47.08;99969.03;4948387;28;20047;-67
2021/10/30 07:51:55;;;;;;;5.32;3.50;;;;;;;17.27;46.93;99963.53;4952288;28;20060;-67
2021/10/30 07:54:22;;;;;;;6.20;3.45;;;;;;;17.27;47.04;99961.66;4951599;28;20055;-68
2021/10/30 07:56:49;;;;;;;5.10;3.60;;;;;;;17.26;46.91;99951.69;4952147;28;20486;-68
2021/10/30 07:59:16;;;;;;;5.05;3.42;;;;;;;17.25;47.26;99958.22;4951060;28;20143;-68
2021/10/30 08:01:43;;;;;;;5.25;3.47;;;;;;;17.25;46.83;99955.47;4952259;28;20055;-67
2021/10/30 08:04:10;;;;;;;8.68;3.85;;;;;;;17.24;46.81;99951.00;4959074;28;20047;-68
2021/10/30 08:06:37;;;;;;;5.13;3.17;;;;;;;17.24;46.75;99963.84;4957138;28;20090;-68
2021/10/30 08:09:04;;;;;;;5.70;3.60;;;;;;;17.22;46.87;99957.66;4941544;28;20423;-68
2021/10/30 08:11:31;;;;;;;4.97;3.10;;;;;;;17.22;47.26;99952.19;4951302;28;20114;-68
2021/10/30 08:13:57;;;;;;;4.97;3.28;;;;;;;17.20;46.79;99944.16;4951169;28;20134;-68
2021/10/30 08:16:24;;;;;;;6.63;3.38;;;;;;;17.19;46.75;99947.06;4951851;28;20139;-68
2021/10/30 08:18:50;;;;;;;5.15;3.50;;;;;;;17.19;47.02;99947.06;4951381;28;20051;-68
2021/10/30 08:21:17;;;;;;;6.30;4.20;;;;;;;17.19;46.86;99947.91;4952218;28;20109;-68
2021/10/30 08:23:44;;;;;;;5.38;3.20;;;;;;;17.19;47.37;99947.06;4950849;28;20505;-68
2021/10/30 08:26:11;;;;;;;4.78;3.40;;;;;;;17.17;47.24;99943.63;4952050;28;20055;-67
2021/10/30 08:28:40;;;;;;;4.68;3.40;;;;;;;17.17;46.97;99935.38;4940990;28;20056;-68
2021/10/30 08:31:07;;;;;;;5.47;3.50;;;;;;;17.16;47.29;99948.25;4951873;28;20079;-68
2021/10/30 08:33:35;;;;;;;5.97;3.50;;;;;;;17.16;47.08;99953.72;4949740;28;20051;-67
2021/10/30 08:36:02;;;;;;;5.80;4.05;;;;;;;17.16;47.11;99956.47;4951760;28;20454;-68
2021/10/30 08:38:29;;;;;;;4.85;3.58;;;;;;;17.15;47.37;99962.97;4954241;28;20055;-68
2021/10/30 08:40:57;;;;;;;6.70;3.80;;;;;;;17.17;47.68;99957.31;4955425;28;20134;-68
2021/10/30 08:43:26;;;;;;;5.10;3.47;;;;;;;17.16;47.54;99959.22;4952993;28;20082;-68
2021/10/30 08:45:55;;;;;;;5.75;3.55;;;;;;;17.16;47.45;99959.22;4952116;28;20502;-68
2021/10/30 08:48:23;;;;;;;5.78;3.42;;;;;;;17.16;47.32;99955.59;4969624;28;20086;-68
2021/10/30 08:50:50;;;;;;;5.20;3.42;;;;;;;17.16;47.43;99950.13;4955127;28;20098;-67
2021/10/30 08:53:18;;;;;;;5.63;3.80;;;;;;;17.15;47.82;99946.50;4954230;28;20043;-67
2021/10/30 08:55:46;;;;;;;5.93;3.60;;;;;;;17.17;47.90;99943.63;4954021;28;20478;-67
2021/10/30 08:58:15;;;;;;;4.45;3.15;;;;;;;17.17;47.54;99933.50;4955207;28;20130;-67
2021/10/30 09:00:46;;;;;;;4.68;3.10;;;;;;;17.20;47.79;99935.06;4953120;28;20426;-67
2021/10/30 09:03:15;;;;;;;5.57;3.42;;;;;;;17.17;48.10;99928.00;4954502;28;20711;-66
2021/10/30 09:05:44;;;;;;;5.47;3.58;;;;;;;17.19;47.90;99936.09;4952195;28;20043;-66
2021/10/30 09:08:12;;;;;;;5.85;3.72;;;;;;;17.18;47.71;99935.22;4965435;28;20251;-67
2021/10/30 09:10:48;;;;;;;5.53;3.35;;;;;;;17.21;48.22;99943.13;4963291;28;20414;-67
2021/10/30 09:13:18;;;;;;;5.93;3.50;;;;;;;17.19;47.84;99945.19;4953927;28;20372;-67
2021/10/30 09:15:47;;;;;;;4.57;2.95;;;;;;;17.21;47.72;99943.13;4952400;28;20070;-67
2021/10/30 09:18:29;;;;;;;7.00;3.63;;;;;;;17.24;48.78;99936.44;4955952;28;20086;-67
2021/10/30 09:21:12;;;;;;;5.30;3.38;;;;;;;17.23;49.05;99932.81;4942067;29;20059;-68
2021/10/30 09:23:42;;;;;;;5.10;3.60;;;;;;;17.23;48.15;99932.81;4951961;28;21051;-68
2021/10/30 09:26:23;;;;;;;6.00;3.47;;;;;;;17.23;48.41;99929.22;4950828;29;20491;-68
2021/10/30 09:29:02;;;;;;;5.30;3.17;;;;;;;17.24;48.46;99936.44;4953856;28;20122;-68
2021/10/30 09:31:29;;;;;;;5.75;3.40;;;;;;;17.22;48.43;99935.72;4954562;28;20047;-68
2021/10/30 09:34:07;;;;;;;5.95;3.42;;;;;;;17.25;48.40;99938.16;4941938;28;20074;-68
2021/10/30 09:36:39;;;;;;;5.53;3.70;;;;;;;17.25;48.68;99935.41;4954628;28;20114;-68
2021/10/30 09:39:07;;;;;;;5.28;3.50;;;;;;;17.22;48.53;99936.59;4953485;28;20483;-68
2021/10/30 09:41:37;;;;;;;5.20;3.42;;;;;;;17.24;48.36;99934.53;4954304;28;20093;-68
2021/10/30 09:44:08;;;;;;;5.25;3.35;;;;;;;17.23;48.50;99924.59;4953227;28;20062;-67
2021/10/30 09:46:58;;;;;;;6.07;3.75;;;;;;;17.22;48.86;99922.00;4954530;28;20431;-68
2021/10/30 09:49:36;;;;;;;5.72;3.33;;;;;;;17.25;48.58;99925.28;4953099;28;20058;-68
2021/10/30 09:52:05;;;;;;;5.28;3.50;;;;;;;17.25;48.79;99922.56;4957206;28;20051;-68
2021/10/30 09:54:43;;;;;;;6.40;3.38;;;;;;;17.25;49.03;99921.69;4954752;28;20054;-68
2021/10/30 09:57:47;;;;;;;4.60;2.95;;;;;;;17.23;49.12;99926.47;4953484;28;20106;-68
2021/10/30 10:00:14;;;;;;;5.72;3.47;;;;;;;17.19;48.60;99922.38;4951079;28;20585;-67
2021/10/30 10:02:42;;;;;;;4.80;3.17;;;;;;;17.23;48.46;99921.00;4957349;28;20546;-68
2021/10/30 10:05:10;;;;;;;5.75;3.47;;;;;;;17.22;48.33;99927.50;4952396;28;20051;-68
2021/10/30 10:07:37;;;;;;;5.28;3.33;;;;;;;17.23;48.55;99926.47;4953986;28;20126;-68
2021/10/30 10:10:04;;;;;;;6.13;3.20;;;;;;;17.23;48.60;99916.38;4949444;28;20069;-67
2021/10/30 10:12:32;;;;;;;5.03;3.15;;;;;;;17.26;48.68;99916.03;4953635;28;20058;-68
2021/10/30 10:15:01;;;;;;;6.38;3.55;;;;;;;17.26;49.12;99906.94;4953066;28;20086;-68
2021/10/30 10:17:27;;;;;;;5.63;3.70;;;;;;;17.24;48.66;99901.63;4958883;28;20046;-67
2021/10/30 10:19:54;;;;;;;4.50;3.03;;;;;;;17.25;49.20;99899.75;4964153;28;20047;-67
2021/10/30 10:22:21;;;;;;;4.75;3.33;;;;;;;17.25;48.86;99897.00;4968429;28;20058;-67
2021/10/30 10:24:49;;;;;;;5.50;3.20;;;;;;;17.26;49.06;99890.50;4971317;28;20184;-67
2021/10/30 10:27:16;;;;;;;5.60;3.47;;;;;;;17.26;48.96;99899.56;4953125;28;20138;-68
2021/10/30 10:29:45;;;;;;;5.32;3.40;;;;;;;17.29;49.24;99901.13;4958451;28;20051;-68
2021/10/30 10:32:15;;;;;;;5.63;3.33;;;;;;;17.31;49.06;99896.31;4952397;28;20154;-68
2021/10/30 10:34:42;;;;;;;5.55;3.40;;;;;;;17.28;48.76;99891.19;4955039;28;20067;-67
2021/10/30 10:37:11;;;;;;;5.55;3.33;;;;;;;17.29;49.37;99902.00;4952103;28;20047;-68
2021/10/30 10:39:39;;;;;;;4.72;3.13;;;;;;;17.28;49.05;99900.28;4952242;28;20051;-67
2021/10/30 10:42:08;;;;;;;4.70;3.42;;;;;;;17.31;48.78;99885.34;4951255;28;20054;-68
2021/10/30 10:44:38;;;;;;;7.20;3.63;;;;;;;17.31;49.19;99880.72;4952410;28;20134;-67
2021/10/30 10:47:04;;;;;;;6.03;3.25;;;;;;;17.28;48.88;99872.84;4949905;28;20142;-68
2021/10/30 10:49:39;;;;;;;5.43;3.47;;;;;;;17.28;49.14;99874.72;4946208;28;20130;-68
2021/10/30 10:52:28;;;;;;;6.50;4.07;;;;;;;17.29;49.64;99876.44;4952698;29;20055;-68
2021/10/30 10:54:54;;;;;;;6.22;3.67;;;;;;;17.25;48.85;99862.19;4943676;28;20047;-68
2021/10/30 10:57:33;;;;;;;6.03;3.90;;;;;;;17.28;49.40;99870.09;4952717;28;20094;-68
2021/10/30 11:00:06;;;;;;;5.47;3.55;;;;;;;17.25;48.78;99873.16;4950218;28;20054;-68
2021/10/30 11:02:35;;;;;;;5.97;3.83;;;;;;;17.26;49.00;99868.53;4952117;28;20126;-67
2021/10/30 11:05:08;;;;;;;7.10;3.90;;;;;;;17.27;49.18;99865.63;4951090;28;20078;-67
2021/10/30 11:07:40;;;;;;;5.47;3.47;;;;;;;17.23;48.92;99866.13;4952145;28;20124;-68
2021/10/30 11:10:14;;;;;;;5.65;3.88;;;;;;;17.26;49.16;99865.78;4947674;28;20055;-67
2021/10/30 11:15:37;;;;;;;6.85;4.30;;;;;;;17.21;49.58;99838.03;4949781;28;20169;-67
2021/10/30 11:18:07;;;;;;;7.38;4.60;;;;;;;17.18;49.41;99843.84;4955226;28;20114;-67
2021/10/30 11:20:34;;;;;;;6.28;4.20;;;;;;;17.18;49.36;99841.09;4959988;28;20043;-67
2021/10/30 11:23:03;;;;;;;6.32;4.40;;;;;;;17.19;49.03;99840.06;4951638;28;20086;-67
2021/10/30 11:25:31;;;;;;;7.72;4.50;;;;;;;17.19;49.03;99840.06;4950227;28;20043;-67
2021/10/30 11:27:59;;;;;;;7.30;4.60;;;;;;;17.18;49.07;99839.22;4952120;28;20051;-67
2021/10/30 11:30:40;;;;;;;6.68;4.40;;;;;;;17.19;49.62;99840.94;4951099;28;20102;-67
2021/10/30 11:33:27;;;;;;;7.05;3.85;;;;;;;17.17;49.58;99845.72;4951184;28;20103;-67
2021/10/30 11:35:58;;;;;;;6.32;4.00;;;;;;;17.17;48.93;99836.63;4947894;28;20043;-68